KSVH/SVH METAR and TAF weather

Enter ICAO airport designator
Station Type Date Time Source
KSVH METAR 2022/01/19 20:15 UTC NOAA

KSVH 192015Z AUTO 21008KT 10SM SCT120 13/M02 A3010 RMK AO2 T01291020


Station Type Date Time Source
KSVH Decoded METAR 2022/01/19 20:15 UTC NOAA

Statesville, Statesville Municipal Airport, NC, United States (KSVH) 35-45-55N 080-57-24W
Jan 19, 2022 - 03:15 PM EST / 2022.01.19 2015 UTC
Wind: from the SSW (210 degrees) at 9 MPH (8 KT):0
Visibility: 10 mile(s):0
Sky conditions: partly cloudy
Temperature: 55.2 F (12.9 C)
Dew Point: 28.4 F (-2.0 C)
Relative Humidity: 35%
Pressure (altimeter): 30.1 in. Hg (1019 hPa)
ob: KSVH 192015Z AUTO 21008KT 10SM SCT120 13/M02 A3010 RMK AO2 T01291020
cycle: 20

Station Type Date Time Source
KSVH TAF UTC NOAA

Error!

Example: see airport list